createdAt,value
2022-10-06T00:01:17.703Z,2.27
2022-10-06T00:03:46.230Z,1.17
2022-10-06T00:06:16.873Z,0.90
2022-10-06T00:08:45.962Z,1.87
2022-10-06T00:11:15.588Z,1.13
2022-10-06T00:13:43.056Z,1.20
2022-10-06T00:16:18.374Z,1.70
2022-10-06T00:18:45.723Z,1.47
2022-10-06T00:21:13.237Z,0.60
2022-10-06T00:23:40.721Z,1.13
2022-10-06T00:26:17.283Z,0.70
2022-10-06T00:28:48.433Z,1.13
2022-10-06T00:31:19.544Z,1.30
2022-10-06T00:33:48.966Z,1.10
2022-10-06T00:36:16.120Z,1.00
2022-10-06T00:38:43.328Z,1.20
2022-10-06T00:41:16.134Z,2.00
2022-10-06T00:43:58.775Z,0.83
2022-10-06T00:46:40.225Z,1.23
2022-10-06T00:49:29.041Z,1.20
2022-10-06T00:52:03.115Z,1.30
2022-10-06T00:54:33.268Z,1.30
2022-10-06T00:57:01.156Z,1.37
2022-10-06T00:59:28.334Z,1.13
2022-10-06T01:02:10.691Z,1.67
2022-10-06T01:04:44.910Z,0.97
2022-10-06T01:07:14.445Z,1.93
2022-10-06T01:09:41.650Z,1.30
2022-10-06T01:12:09.737Z,1.17
2022-10-06T01:14:40.204Z,1.83
2022-10-06T01:17:23.764Z,1.37
2022-10-06T01:20:04.318Z,0.97
2022-10-06T01:23:10.465Z,0.80
2022-10-06T01:25:38.463Z,0.83
2022-10-06T01:28:09.277Z,1.80
2022-10-06T01:30:54.845Z,0.90
2022-10-06T01:33:23.408Z,2.03
2022-10-06T01:35:52.977Z,0.97
2022-10-06T01:38:21.939Z,1.10
2022-10-06T01:40:52.638Z,1.40
2022-10-06T01:43:20.339Z,0.80
2022-10-06T01:45:55.419Z,1.30
2022-10-06T01:48:24.098Z,0.80
2022-10-06T01:50:51.363Z,0.97
2022-10-06T01:53:19.025Z,1.17
2022-10-06T01:55:46.569Z,1.23
2022-10-06T01:58:14.047Z,0.77
2022-10-06T02:00:41.238Z,1.13
2022-10-06T02:03:08.835Z,1.00
2022-10-06T02:05:36.318Z,1.10
2022-10-06T02:08:03.811Z,1.20
2022-10-06T02:10:31.194Z,1.33
2022-10-06T02:12:58.423Z,1.57
2022-10-06T02:15:27.005Z,1.27
2022-10-06T02:17:55.860Z,0.57
2022-10-06T02:20:23.177Z,0.83
2022-10-06T02:22:50.430Z,1.53
2022-10-06T02:25:19.770Z,0.90
2022-10-06T02:27:46.856Z,0.93
2022-10-06T02:30:16.525Z,0.87
2022-10-06T02:32:44.249Z,0.77
2022-10-06T02:35:15.454Z,0.37
2022-10-06T02:37:42.581Z,1.27
2022-10-06T02:40:10.599Z,0.83
2022-10-06T02:42:38.617Z,0.90
2022-10-06T02:45:07.388Z,0.83
2022-10-06T02:47:38.065Z,1.50
2022-10-06T02:50:07.813Z,0.80
2022-10-06T02:52:38.079Z,0.80
2022-10-06T02:55:06.897Z,1.03
2022-10-06T02:57:34.426Z,0.80
2022-10-06T03:00:01.921Z,0.87
2022-10-06T03:02:31.341Z,0.50
2022-10-06T03:04:59.041Z,1.10
2022-10-06T03:07:26.266Z,0.47
2022-10-06T03:09:53.840Z,1.07
2022-10-06T03:12:21.382Z,0.60
2022-10-06T03:14:48.873Z,0.83
2022-10-06T03:17:16.018Z,0.83
2022-10-06T03:19:43.096Z,2.70
2022-10-06T03:22:10.684Z,1.77
2022-10-06T03:24:37.759Z,0.60
2022-10-06T03:27:04.897Z,0.83
2022-10-06T03:29:32.222Z,1.00
2022-10-06T03:31:59.800Z,0.97
2022-10-06T03:34:27.071Z,0.80
2022-10-06T03:36:54.411Z,0.93
2022-10-06T03:39:22.111Z,0.60
2022-10-06T03:41:49.979Z,1.13
2022-10-06T03:44:17.531Z,0.60
2022-10-06T03:46:45.145Z,0.83
2022-10-06T03:49:12.243Z,0.50
2022-10-06T03:51:41.662Z,0.40
2022-10-06T03:54:12.913Z,1.63
2022-10-06T03:56:41.869Z,1.73
2022-10-06T03:59:12.947Z,0.40
2022-10-06T04:01:46.718Z,1.50
2022-10-06T04:04:14.976Z,1.00
2022-10-06T04:06:44.528Z,0.93
2022-10-06T04:09:16.257Z,0.50
2022-10-06T04:11:44.963Z,0.43
2022-10-06T04:14:15.662Z,0.70
2022-10-06T04:16:46.904Z,0.80
2022-10-06T04:19:15.703Z,0.90
2022-10-06T04:21:45.919Z,1.30
2022-10-06T04:24:16.984Z,1.23
2022-10-06T04:26:46.801Z,1.13
2022-10-06T04:29:15.085Z,0.67
2022-10-06T04:31:43.144Z,0.90
2022-10-06T04:34:15.164Z,1.07
2022-10-06T04:36:43.184Z,0.60
2022-10-06T04:39:12.291Z,0.43
2022-10-06T04:41:42.224Z,0.27
2022-10-06T04:44:10.367Z,0.80
2022-10-06T04:46:43.225Z,1.37
2022-10-06T04:49:18.888Z,0.97
2022-10-06T04:51:50.204Z,0.50
2022-10-06T04:54:19.176Z,1.10
2022-10-06T04:56:46.944Z,1.17
2022-10-06T04:59:14.538Z,0.57
2022-10-06T05:01:41.600Z,0.87
2022-10-06T05:04:08.774Z,0.77
2022-10-06T05:06:41.061Z,1.00
2022-10-06T05:09:15.835Z,1.53
2022-10-06T05:11:44.195Z,1.40
2022-10-06T05:14:11.651Z,1.40
2022-10-06T05:16:38.744Z,1.10
2022-10-06T05:19:06.179Z,1.40
2022-10-06T05:21:33.628Z,2.10
2022-10-06T05:24:02.864Z,0.97
2022-10-06T05:26:34.208Z,1.20
2022-10-06T05:29:01.498Z,1.53
2022-10-06T05:31:31.879Z,1.07
2022-10-06T05:33:59.886Z,1.57
2022-10-06T05:36:31.118Z,2.10
2022-10-06T05:38:59.270Z,1.57
2022-10-06T05:41:32.147Z,1.00
2022-10-06T05:44:02.528Z,1.60
2022-10-06T05:46:32.581Z,0.97
2022-10-06T05:49:03.699Z,1.30
2022-10-06T05:51:34.219Z,1.63
2022-10-06T05:54:03.658Z,1.60
2022-10-06T05:56:34.212Z,1.10
2022-10-06T05:59:01.785Z,1.30
2022-10-06T06:01:42.419Z,1.00
2022-10-06T06:04:12.679Z,1.23
2022-10-06T06:06:45.490Z,0.87
2022-10-06T06:09:16.917Z,0.97
2022-10-06T06:11:47.850Z,1.47
2022-10-06T06:14:18.824Z,1.63
2022-10-06T06:16:46.661Z,1.27
2022-10-06T06:19:15.351Z,1.57
2022-10-06T06:21:42.609Z,1.67
2022-10-06T06:24:09.711Z,1.20
2022-10-06T06:26:38.164Z,1.70
2022-10-06T06:29:06.569Z,1.60
2022-10-06T06:31:45.238Z,1.53
2022-10-06T06:34:12.684Z,1.60
2022-10-06T06:36:43.488Z,1.33
2022-10-06T06:39:14.035Z,1.77
2022-10-06T06:41:47.238Z,1.90
2022-10-06T06:44:14.973Z,2.00
2022-10-06T06:46:45.955Z,0.80
2022-10-06T06:49:13.647Z,1.47
2022-10-06T06:51:45.349Z,2.47
2022-10-06T06:54:13.100Z,1.10
2022-10-06T06:56:40.456Z,1.77
2022-10-06T06:59:11.089Z,1.70
2022-10-06T07:01:44.632Z,1.20
2022-10-06T07:04:14.713Z,1.37
2022-10-06T07:06:47.824Z,1.37
2022-10-06T07:09:15.085Z,1.17
2022-10-06T07:11:42.139Z,1.10
2022-10-06T07:14:12.838Z,1.87
2022-10-06T07:16:58.857Z,1.33
2022-10-06T07:19:46.163Z,1.00
2022-10-06T07:22:37.458Z,1.23
2022-10-06T07:25:25.431Z,1.67
2022-10-06T07:27:53.923Z,1.20
2022-10-06T07:30:28.860Z,2.00
2022-10-06T07:32:58.693Z,1.63
2022-10-06T07:35:26.047Z,1.33
2022-10-06T07:37:53.370Z,1.57
2022-10-06T07:40:21.306Z,2.10
2022-10-06T07:42:48.694Z,1.63
2022-10-06T07:45:39.823Z,1.80
2022-10-06T07:48:33.035Z,2.10
2022-10-06T07:51:00.437Z,1.87
2022-10-06T07:53:29.129Z,1.87
2022-10-06T07:56:06.183Z,1.47
2022-10-06T07:58:34.945Z,2.43
2022-10-06T08:01:08.571Z,1.50
2022-10-06T08:03:38.360Z,1.17
2022-10-06T08:06:06.095Z,1.43
2022-10-06T08:08:38.110Z,1.83
2022-10-06T08:11:08.357Z,1.97
2022-10-06T08:13:37.513Z,2.00
2022-10-06T08:16:13.872Z,1.70
2022-10-06T08:18:46.347Z,1.73
2022-10-06T08:21:27.328Z,2.10
2022-10-06T08:23:56.777Z,1.87
2022-10-06T08:26:26.654Z,2.17
2022-10-06T08:29:03.392Z,2.30
2022-10-06T08:31:32.825Z,1.97
2022-10-06T08:33:59.966Z,1.97
2022-10-06T08:36:31.901Z,2.03
2022-10-06T08:39:00.980Z,1.90
2022-10-06T08:41:43.276Z,1.30
2022-10-06T08:44:19.755Z,1.50
2022-10-06T08:47:00.624Z,1.30
2022-10-06T08:49:39.699Z,1.83
2022-10-06T08:52:57.328Z,1.10
2022-10-06T08:55:53.504Z,1.10
2022-10-06T08:58:54.065Z,1.13
2022-10-06T09:01:29.082Z,1.10
2022-10-06T09:04:03.574Z,1.60
2022-10-06T09:07:10.643Z,1.20
2022-10-06T09:10:03.535Z,1.40
2022-10-06T09:13:08.974Z,0.90
2022-10-06T09:15:56.733Z,1.10
2022-10-06T09:19:06.854Z,1.20
2022-10-06T09:21:35.765Z,1.70
2022-10-06T09:24:14.373Z,0.80
2022-10-06T09:26:45.154Z,1.20
2022-10-06T09:29:13.584Z,0.70
2022-10-06T09:31:48.975Z,1.27
2022-10-06T09:34:28.451Z,1.10
2022-10-06T09:37:03.698Z,1.27
2022-10-06T09:39:36.979Z,1.30
2022-10-06T09:42:21.622Z,1.00
2022-10-06T09:44:52.342Z,1.30
2022-10-06T09:47:29.939Z,1.20
2022-10-06T09:50:23.226Z,1.00
2022-10-06T09:53:05.828Z,1.20
2022-10-06T09:55:44.718Z,1.07
2022-10-06T09:58:34.853Z,1.13
2022-10-06T10:01:08.691Z,0.73
2022-10-06T10:04:15.643Z,1.00
2022-10-06T10:06:40.832Z,1.20
2022-10-06T10:09:30.243Z,1.20
2022-10-06T10:12:24.684Z,1.10
2022-10-06T10:14:59.016Z,0.90
2022-10-06T10:17:47.590Z,1.27
2022-10-06T10:20:30.197Z,1.33
2022-10-06T10:23:21.050Z,0.70
2022-10-06T10:26:26.015Z,1.20
2022-10-06T10:29:40.841Z,1.70
2022-10-06T10:32:35.066Z,1.30
2022-10-06T10:35:23.419Z,1.27
2022-10-06T10:38:00.690Z,1.00
2022-10-06T10:40:44.144Z,1.17
2022-10-06T10:43:29.590Z,1.10
2022-10-06T10:46:24.033Z,1.23
2022-10-06T10:49:18.472Z,1.30
2022-10-06T10:52:02.435Z,1.70
2022-10-06T10:55:07.374Z,0.90
2022-10-06T10:57:41.443Z,1.00
2022-10-06T11:00:26.217Z,1.30
2022-10-06T11:02:56.784Z,1.23
2022-10-06T11:06:01.365Z,1.53
2022-10-06T11:09:10.568Z,1.50
2022-10-06T11:12:14.328Z,0.77
2022-10-06T11:14:51.228Z,1.40
2022-10-06T11:17:51.158Z,1.23
2022-10-06T11:20:46.627Z,1.10
2022-10-06T11:23:30.673Z,0.87
2022-10-06T11:26:35.807Z,1.20
2022-10-06T11:29:52.392Z,1.43
2022-10-06T11:32:27.956Z,1.40
2022-10-06T11:34:55.330Z,1.27
2022-10-06T11:37:45.248Z,1.10
2022-10-06T11:40:47.821Z,1.03
2022-10-06T11:43:34.986Z,1.00
2022-10-06T11:46:32.334Z,1.20
2022-10-06T11:49:28.821Z,1.33
2022-10-06T11:52:16.037Z,1.17
2022-10-06T11:54:57.411Z,1.43
2022-10-06T11:57:30.285Z,1.03
2022-10-06T12:00:15.872Z,1.33
2022-10-06T12:02:46.004Z,1.20
2022-10-06T12:05:47.118Z,1.27
2022-10-06T12:08:01.194Z,1.03
2022-10-06T12:10:28.202Z,1.23
2022-10-06T12:14:06.570Z,1.10
2022-10-06T12:17:09.367Z,1.20
2022-10-06T12:19:24.442Z,1.00
2022-10-06T12:22:01.342Z,1.37
2022-10-06T12:24:54.110Z,1.03
2022-10-06T12:27:47.804Z,1.67
2022-10-06T12:30:21.339Z,1.20
2022-10-06T12:32:58.793Z,1.50
2022-10-06T12:35:32.834Z,1.00
2022-10-06T12:38:06.192Z,1.10
2022-10-06T12:40:48.244Z,1.50
2022-10-06T12:43:17.626Z,0.97
2022-10-06T12:46:08.196Z,1.30
2022-10-06T12:48:43.902Z,1.20
2022-10-06T12:51:31.129Z,1.30
2022-10-06T12:54:32.730Z,1.27
2022-10-06T12:57:15.747Z,1.43
2022-10-06T12:59:42.950Z,1.43
2022-10-06T13:02:09.947Z,1.40
2022-10-06T13:04:45.313Z,1.27
2022-10-06T13:07:24.300Z,1.30
2022-10-06T13:10:15.030Z,1.70
2022-10-06T13:12:47.213Z,1.50
2022-10-06T13:15:29.661Z,1.10
2022-10-06T13:18:13.400Z,1.87
2022-10-06T13:20:49.306Z,1.47
2022-10-06T13:23:29.546Z,1.40
2022-10-06T13:26:06.070Z,1.30
2022-10-06T13:28:36.179Z,1.13
2022-10-06T13:31:18.156Z,1.03
2022-10-06T13:33:49.696Z,1.10
2022-10-06T13:36:18.095Z,0.97
2022-10-06T13:38:45.739Z,0.90
2022-10-06T13:41:34.810Z,1.47
2022-10-06T13:44:20.003Z,1.43
2022-10-06T13:46:55.047Z,1.00
2022-10-06T13:49:49.931Z,1.50
2022-10-06T13:52:40.376Z,1.10
2022-10-06T13:55:23.524Z,1.30
2022-10-06T13:58:09.550Z,1.10
2022-10-06T14:00:47.608Z,1.03
2022-10-06T14:06:22.465Z,0.90
2022-10-06T14:08:55.959Z,1.20
2022-10-06T14:11:29.980Z,1.53
2022-10-06T14:14:02.507Z,0.93
2022-10-06T14:16:30.243Z,1.70
2022-10-06T14:19:06.127Z,0.90
2022-10-06T14:21:37.019Z,1.40
2022-10-06T14:24:09.879Z,1.13
2022-10-06T14:26:37.695Z,1.17
2022-10-06T14:29:05.090Z,1.20
2022-10-06T14:31:35.423Z,1.57
2022-10-06T14:34:04.076Z,1.37
2022-10-06T14:36:37.511Z,1.70
2022-10-06T14:39:07.080Z,1.60
2022-10-06T14:41:34.691Z,1.10
2022-10-06T14:44:06.328Z,1.30
2022-10-06T14:46:34.144Z,1.50
2022-10-06T14:49:07.172Z,2.00
2022-10-06T14:51:37.300Z,1.40
2022-10-06T14:54:06.187Z,1.33
2022-10-06T14:56:37.418Z,1.40
2022-10-06T14:59:08.891Z,1.27
2022-10-06T15:01:39.263Z,1.63
2022-10-06T15:04:26.990Z,1.40
2022-10-06T15:07:13.271Z,1.30
2022-10-06T15:09:40.330Z,1.87
2022-10-06T15:12:07.824Z,1.30
2022-10-06T15:14:40.218Z,1.13
2022-10-06T15:17:07.616Z,1.33
2022-10-06T15:19:35.259Z,1.67
2022-10-06T15:22:04.775Z,2.63
2022-10-06T15:24:31.991Z,1.73
2022-10-06T15:27:22.406Z,1.23
2022-10-06T15:29:51.817Z,1.80
2022-10-06T15:32:19.325Z,1.20
2022-10-06T15:34:46.510Z,1.00
2022-10-06T15:37:13.548Z,1.30
2022-10-06T15:39:40.623Z,1.50
2022-10-06T15:42:08.822Z,1.67
2022-10-06T15:44:36.592Z,1.77
2022-10-06T15:47:06.004Z,2.07
2022-10-06T15:49:38.204Z,1.97
2022-10-06T15:52:07.258Z,1.80
2022-10-06T15:54:38.742Z,2.00
2022-10-06T15:57:09.450Z,1.63
2022-10-06T15:59:40.081Z,1.83
2022-10-06T16:02:17.040Z,1.90
2022-10-06T16:05:06.236Z,2.17
2022-10-06T16:07:34.153Z,1.93
2022-10-06T16:10:01.324Z,2.53
2022-10-06T16:12:29.000Z,1.93
2022-10-06T16:14:58.188Z,2.53
2022-10-06T16:17:25.571Z,12.03
2022-10-06T16:19:52.602Z,11.93
2022-10-06T16:22:21.903Z,2.67
2022-10-06T16:24:50.356Z,1.90
2022-10-06T16:27:18.483Z,1.90
2022-10-06T16:29:45.819Z,2.17
2022-10-06T16:32:15.996Z,1.87
2022-10-06T16:34:43.532Z,1.87
2022-10-06T16:37:10.713Z,2.03
2022-10-06T16:39:37.986Z,1.77
2022-10-06T16:42:05.734Z,2.50
2022-10-06T16:44:32.956Z,3.77
2022-10-06T16:47:00.202Z,1.80
2022-10-06T16:49:28.444Z,1.77
2022-10-06T16:51:55.795Z,2.10
2022-10-06T16:54:23.379Z,1.80
2022-10-06T16:56:58.410Z,2.40
2022-10-06T16:59:29.694Z,2.57
2022-10-06T17:01:56.793Z,2.87
2022-10-06T17:04:25.732Z,2.80
2022-10-06T17:06:57.703Z,2.37
2022-10-06T17:09:28.429Z,2.17
2022-10-06T17:12:01.782Z,2.67
2022-10-06T17:14:31.172Z,2.17
2022-10-06T17:16:59.351Z,1.93
2022-10-06T17:19:29.669Z,2.77
2022-10-06T17:21:59.313Z,3.10
2022-10-06T17:24:28.608Z,2.57
2022-10-06T17:26:57.968Z,2.47
2022-10-06T17:29:27.833Z,2.20
2022-10-06T17:32:00.268Z,2.57
2022-10-06T17:34:32.465Z,2.33
2022-10-06T17:37:02.480Z,2.53
2022-10-06T17:39:30.249Z,2.50
2022-10-06T17:41:57.606Z,3.00
2022-10-06T17:44:29.405Z,2.93
2022-10-06T17:47:00.800Z,3.17
2022-10-06T17:49:32.802Z,3.00
2022-10-06T17:52:00.711Z,3.60
2022-10-06T17:54:28.957Z,3.50
2022-10-06T17:56:58.193Z,3.30
2022-10-06T17:59:30.510Z,3.17
2022-10-06T18:02:01.521Z,3.30
2022-10-06T18:04:29.531Z,3.63
2022-10-06T18:07:00.205Z,3.70
2022-10-06T18:09:27.556Z,3.63
2022-10-06T18:11:56.659Z,2.87
2022-10-06T18:14:28.965Z,2.83
2022-10-06T18:17:04.071Z,2.77
2022-10-06T18:19:36.949Z,3.10
2022-10-06T18:22:10.412Z,2.47
2022-10-06T18:24:38.966Z,2.57
2022-10-06T18:27:08.370Z,3.03
2022-10-06T18:29:38.904Z,2.90
2022-10-06T18:37:43.776Z,3.33
2022-10-06T18:40:12.515Z,3.27
2022-10-06T18:42:40.704Z,3.43
2022-10-06T18:45:30.422Z,3.33
2022-10-06T18:48:18.939Z,3.00
2022-10-06T18:50:59.552Z,2.70
2022-10-06T18:53:27.182Z,3.07
2022-10-06T18:55:55.206Z,2.27
2022-10-06T18:58:22.645Z,2.63
2022-10-06T19:00:50.257Z,2.60
2022-10-06T19:03:18.402Z,3.10
2022-10-06T19:05:54.206Z,3.20
2022-10-06T19:08:22.769Z,3.20
2022-10-06T19:11:09.869Z,3.07
2022-10-06T19:13:38.103Z,3.20
2022-10-06T19:16:06.169Z,2.87
2022-10-06T19:18:37.401Z,3.57
2022-10-06T19:21:09.484Z,3.07
2022-10-06T19:23:39.296Z,3.33
2022-10-06T19:26:11.238Z,3.43
2022-10-06T19:28:39.599Z,3.03
2022-10-06T19:31:18.828Z,3.50
2022-10-06T19:33:52.205Z,2.93
2022-10-06T19:36:19.410Z,2.93
2022-10-06T19:38:47.103Z,3.87
2022-10-06T19:41:33.390Z,3.23
2022-10-06T19:44:02.867Z,2.83
2022-10-06T19:46:30.258Z,2.93
2022-10-06T19:48:58.568Z,2.67
2022-10-06T19:51:25.856Z,2.83
2022-10-06T19:53:52.901Z,3.33
2022-10-06T19:56:25.403Z,2.70
2022-10-06T19:58:53.803Z,2.87
2022-10-06T20:01:20.987Z,2.77
2022-10-06T20:03:48.288Z,3.30
2022-10-06T20:06:15.523Z,3.10
2022-10-06T20:08:44.248Z,3.17
2022-10-06T20:11:15.550Z,1.73
2022-10-06T20:13:44.691Z,2.70
2022-10-06T20:16:19.554Z,3.03
2022-10-06T20:18:50.744Z,3.40
2022-10-06T20:21:31.386Z,2.57
2022-10-06T20:24:02.754Z,2.90
2022-10-06T20:26:34.457Z,2.10
2022-10-06T20:29:05.534Z,2.43
2022-10-06T20:31:36.585Z,2.37
2022-10-06T20:34:08.218Z,2.17
2022-10-06T20:36:37.610Z,3.07
2022-10-06T20:39:26.425Z,2.83
2022-10-06T20:41:55.822Z,3.27
2022-10-06T20:44:23.151Z,3.10
2022-10-06T20:46:51.497Z,2.77
2022-10-06T20:49:18.782Z,2.77
2022-10-06T20:51:51.543Z,2.77
2022-10-06T20:54:22.378Z,3.20
2022-10-06T20:56:55.183Z,2.93
2022-10-06T20:59:25.032Z,2.90
2022-10-06T21:01:52.732Z,2.93
2022-10-06T21:04:21.591Z,2.43
2022-10-06T21:06:50.142Z,2.93
2022-10-06T21:09:20.433Z,2.53
2022-10-06T21:11:48.863Z,3.60
2022-10-06T21:14:17.800Z,3.43
2022-10-06T21:16:48.287Z,3.37
2022-10-06T21:19:22.280Z,2.83
2022-10-06T21:21:50.531Z,2.80
2022-10-06T21:24:18.187Z,3.03
2022-10-06T21:26:45.536Z,2.67
2022-10-06T21:29:15.772Z,2.70
2022-10-06T21:31:45.085Z,2.90
2022-10-06T21:34:16.331Z,3.43
2022-10-06T21:36:44.777Z,2.90
2022-10-06T21:39:13.332Z,2.47
2022-10-06T21:41:41.246Z,2.50
2022-10-06T21:44:18.130Z,2.43
2022-10-06T21:46:50.603Z,3.50
2022-10-06T21:49:21.611Z,2.43
2022-10-06T21:51:52.611Z,3.40
2022-10-06T21:54:22.435Z,3.40
2022-10-06T21:56:50.184Z,3.23
2022-10-06T21:59:18.714Z,2.00
2022-10-06T22:01:47.993Z,3.10
2022-10-06T22:04:16.364Z,2.37
2022-10-06T22:06:45.852Z,2.30
2022-10-06T22:09:17.693Z,2.37
2022-10-06T22:11:45.633Z,1.90
2022-10-06T22:14:16.509Z,2.67
2022-10-06T22:16:44.800Z,2.07
2022-10-06T22:19:14.503Z,2.23
2022-10-06T22:21:45.591Z,2.40
2022-10-06T22:24:17.247Z,2.30
2022-10-06T22:26:46.004Z,2.77
2022-10-06T22:29:15.526Z,2.87
2022-10-06T22:31:47.937Z,2.23
2022-10-06T22:34:20.541Z,2.60
2022-10-06T22:36:48.338Z,2.07
2022-10-06T22:39:16.096Z,2.30
2022-10-06T22:41:44.098Z,1.40
2022-10-06T22:44:11.353Z,1.70
2022-10-06T22:46:39.055Z,2.10
2022-10-06T22:49:06.497Z,1.93
2022-10-06T22:51:34.256Z,2.13
2022-10-06T22:54:01.692Z,1.60
2022-10-06T22:56:32.245Z,2.00
2022-10-06T22:59:00.637Z,1.33
2022-10-06T23:01:29.377Z,2.23
2022-10-06T23:03:57.550Z,1.47
2022-10-06T23:06:25.485Z,1.80
2022-10-06T23:08:53.307Z,1.67
2022-10-06T23:11:22.876Z,2.27
2022-10-06T23:13:50.966Z,1.13
2022-10-06T23:16:19.982Z,2.60
2022-10-06T23:18:48.191Z,1.53
2022-10-06T23:21:22.824Z,1.70
2022-10-06T23:23:56.168Z,2.30
2022-10-06T23:26:24.763Z,2.20
2022-10-06T23:28:59.004Z,1.87
2022-10-06T23:31:27.559Z,1.97
2022-10-06T23:33:55.517Z,2.10
2022-10-06T23:36:23.204Z,1.77
2022-10-06T23:38:50.815Z,1.70
2022-10-06T23:41:18.465Z,1.70
2022-10-06T23:43:46.103Z,2.40
2022-10-06T23:46:14.363Z,1.97
2022-10-06T23:48:42.688Z,2.50
2022-10-06T23:51:15.627Z,1.80
2022-10-06T23:53:43.911Z,1.50
2022-10-06T23:56:11.674Z,1.13
2022-10-06T23:58:39.270Z,1.60
